createdAt,value
2019-01-06T00:01:48.129Z,10.47
2019-01-06T00:04:35.487Z,10.37
2019-01-06T00:07:23.597Z,9.47
2019-01-06T00:10:06.088Z,9.13
2019-01-06T00:12:56.988Z,9.33
2019-01-06T00:15:35.725Z,10.07
2019-01-06T00:18:38.622Z,10.20
2019-01-06T00:21:42.746Z,10.10
2019-01-06T00:24:29.324Z,10.60
2019-01-06T00:27:24.831Z,10.70
2019-01-06T00:30:16.561Z,10.20
2019-01-06T00:33:02.959Z,9.90
2019-01-06T00:36:01.031Z,9.87
2019-01-06T00:38:53.478Z,9.70
2019-01-06T00:41:40.576Z,9.50
2019-01-06T00:44:38.585Z,9.53
2019-01-06T00:47:28.152Z,9.57
2019-01-06T00:50:34.640Z,9.63
2019-01-06T00:53:34.154Z,10.17
2019-01-06T00:56:20.241Z,10.00
2019-01-06T00:59:10.866Z,9.87
2019-01-06T01:01:57.216Z,10.00
2019-01-06T01:04:45.115Z,9.73
2019-01-06T01:07:31.941Z,9.27
2019-01-06T01:13:52.636Z,9.13
2019-01-06T01:16:41.927Z,8.87
2019-01-06T01:19:38.859Z,8.70
2019-01-06T01:22:38.768Z,8.40
2019-01-06T01:25:25.303Z,7.17
2019-01-06T01:28:17.670Z,7.07
2019-01-06T01:31:13.717Z,7.13
2019-01-06T01:34:01.327Z,7.33
2019-01-06T01:36:45.923Z,7.10
2019-01-06T01:39:36.823Z,7.33
2019-01-06T01:42:27.603Z,7.87
2019-01-06T01:45:15.521Z,8.07
2019-01-06T01:48:01.612Z,7.47
2019-01-06T01:50:41.837Z,7.87
2019-01-06T01:53:23.640Z,7.73
2019-01-06T01:56:17.575Z,8.00
2019-01-06T01:59:05.464Z,8.73
2019-01-06T02:02:06.202Z,7.70
2019-01-06T02:04:56.964Z,7.77
2019-01-06T02:08:02.820Z,8.20
2019-01-06T02:10:46.700Z,7.63
2019-01-06T02:13:52.564Z,7.87
2019-01-06T02:16:59.717Z,8.53
2019-01-06T02:19:46.230Z,8.27
2019-01-06T02:22:32.564Z,8.40
2019-01-06T02:25:18.914Z,8.77
2019-01-06T02:28:05.406Z,8.70
2019-01-06T02:30:52.581Z,8.90
2019-01-06T02:33:41.035Z,8.73
2019-01-06T02:36:31.918Z,8.60
2019-01-06T02:39:24.712Z,9.70
2019-01-06T02:42:09.988Z,10.40
2019-01-06T02:45:06.697Z,10.27
2019-01-06T02:48:03.955Z,10.07
2019-01-06T02:50:50.587Z,9.83
2019-01-06T02:53:37.432Z,10.27
2019-01-06T02:56:25.974Z,10.83
2019-01-06T02:59:12.696Z,10.10
2019-01-06T03:02:14.325Z,10.37
2019-01-06T03:05:10.904Z,10.60
2019-01-06T03:07:57.289Z,10.80
2019-01-06T03:10:49.961Z,10.03
2019-01-06T03:13:33.294Z,10.53
2019-01-06T03:16:21.267Z,11.50
2019-01-06T03:19:24.117Z,11.83
2019-01-06T03:22:10.689Z,11.37
2019-01-06T03:24:57.234Z,11.63
2019-01-06T03:28:00.044Z,11.30
2019-01-06T03:30:46.584Z,11.83
2019-01-06T03:33:26.743Z,12.30
2019-01-06T03:36:10.771Z,11.60
2019-01-06T03:38:57.195Z,11.40
2019-01-06T03:41:51.875Z,11.17
2019-01-06T03:44:38.566Z,12.47
2019-01-06T03:47:35.677Z,12.47
2019-01-06T03:50:32.367Z,11.23
2019-01-06T03:53:27.672Z,12.37
2019-01-06T03:56:18.425Z,11.77
2019-01-06T03:59:03.131Z,12.47
2019-01-06T04:01:49.800Z,11.87
2019-01-06T04:04:46.755Z,12.33
2019-01-06T04:07:34.367Z,12.67
2019-01-06T04:10:34.431Z,12.17
2019-01-06T04:13:24.846Z,12.80
2019-01-06T04:16:12.373Z,12.43
2019-01-06T04:18:50.980Z,12.47
2019-01-06T04:21:37.995Z,11.53
2019-01-06T04:24:23.477Z,11.53
2019-01-06T04:27:14.537Z,13.33
2019-01-06T04:30:16.406Z,11.63
2019-01-06T04:33:00.667Z,13.50
2019-01-06T04:35:44.192Z,12.67
2019-01-06T04:38:30.471Z,13.23
2019-01-06T04:41:17.018Z,12.50
2019-01-06T04:44:03.808Z,12.97
2019-01-06T04:46:54.789Z,12.23
2019-01-06T04:49:43.453Z,12.43
2019-01-06T04:52:32.705Z,11.90
2019-01-06T04:55:28.167Z,12.13
2019-01-06T04:58:16.306Z,10.83
2019-01-06T05:01:00.586Z,13.20
2019-01-06T05:03:52.441Z,11.73
2019-01-06T05:06:45.546Z,11.80
2019-01-06T05:09:51.990Z,11.97
2019-01-06T05:12:52.873Z,11.17
2019-01-06T05:15:44.629Z,11.63
2019-01-06T05:18:33.575Z,11.43
2019-01-06T05:21:21.560Z,11.97
2019-01-06T05:24:08.386Z,12.17
2019-01-06T05:26:59.029Z,12.20
2019-01-06T05:29:49.720Z,11.57
2019-01-06T05:32:30.533Z,12.50
2019-01-06T05:35:18.437Z,11.37
2019-01-06T05:38:12.479Z,12.17
2019-01-06T05:41:05.247Z,10.50
2019-01-06T05:43:44.945Z,10.27
2019-01-06T05:46:33.789Z,11.33
2019-01-06T05:49:20.366Z,11.23
2019-01-06T05:52:13.217Z,11.93
2019-01-06T05:55:11.778Z,11.40
2019-01-06T05:58:02.795Z,12.03
2019-01-06T06:00:49.409Z,11.60
2019-01-06T06:03:35.307Z,12.07
2019-01-06T06:06:14.414Z,12.73
2019-01-06T06:09:09.285Z,11.83
2019-01-06T06:12:09.426Z,11.77
2019-01-06T06:14:55.744Z,12.33
2019-01-06T06:17:42.325Z,11.83
2019-01-06T06:20:41.775Z,11.97
2019-01-06T06:23:36.220Z,12.30
2019-01-06T06:26:26.901Z,11.90
2019-01-06T06:29:19.617Z,12.17
2019-01-06T06:32:10.303Z,11.67
2019-01-06T06:34:58.101Z,11.87
2019-01-06T06:37:39.693Z,11.53
2019-01-06T06:40:27.940Z,12.00
2019-01-06T06:43:15.723Z,11.03
2019-01-06T06:46:06.447Z,12.50
2019-01-06T06:48:47.363Z,11.97
2019-01-06T06:51:30.543Z,12.10
2019-01-06T06:54:30.414Z,12.00
2019-01-06T06:57:52.543Z,12.70
2019-01-06T07:00:53.009Z,12.90
2019-01-06T07:03:44.243Z,12.27
2019-01-06T07:06:42.675Z,12.83
2019-01-06T07:09:31.576Z,13.93
2019-01-06T07:12:22.533Z,14.90
2019-01-06T07:15:22.808Z,13.67
2019-01-06T07:18:10.839Z,13.83
2019-01-06T07:21:02.514Z,14.57
2019-01-06T07:23:51.039Z,13.70
2019-01-06T07:26:53.865Z,15.03
2019-01-06T07:29:53.948Z,16.23
2019-01-06T07:32:52.321Z,14.17
2019-01-06T07:35:34.156Z,15.90
2019-01-06T07:38:20.359Z,16.73
2019-01-06T07:41:09.487Z,16.77
2019-01-06T07:44:00.219Z,15.97
2019-01-06T07:46:50.922Z,16.87
2019-01-06T07:49:32.862Z,16.47
2019-01-06T07:52:37.369Z,17.57
2019-01-06T07:55:19.890Z,17.17
2019-01-06T07:58:17.748Z,17.03
2019-01-06T08:01:04.307Z,18.07
2019-01-06T08:04:09.244Z,17.77
2019-01-06T08:07:00.004Z,17.53
2019-01-06T08:09:46.073Z,17.63
2019-01-06T08:12:36.458Z,18.30
2019-01-06T08:15:25.163Z,18.27
2019-01-06T08:18:29.870Z,17.90
2019-01-06T08:21:16.194Z,15.97
2019-01-06T08:24:03.796Z,17.07
2019-01-06T08:26:49.104Z,16.50
2019-01-06T08:29:37.220Z,15.40
2019-01-06T08:32:24.642Z,17.27
2019-01-06T08:35:11.103Z,17.27
2019-01-06T08:38:11.370Z,17.27
2019-01-06T08:41:02.468Z,16.87
2019-01-06T08:43:46.541Z,16.53
2019-01-06T08:46:33.027Z,15.67
2019-01-06T08:49:21.215Z,16.37
2019-01-06T08:52:02.145Z,15.20
2019-01-06T08:54:51.139Z,15.40
2019-01-06T08:57:43.018Z,15.37
2019-01-06T09:00:34.742Z,15.60
2019-01-06T09:03:18.322Z,15.70
2019-01-06T09:05:59.504Z,15.53
2019-01-06T09:08:47.519Z,15.30
2019-01-06T09:11:36.907Z,16.07
2019-01-06T09:14:28.963Z,15.23
2019-01-06T09:17:15.394Z,16.17
2019-01-06T09:20:02.161Z,14.83
2019-01-06T09:22:48.974Z,14.70
2019-01-06T09:25:40.863Z,15.33
2019-01-06T09:28:40.509Z,15.37
2019-01-06T09:31:43.988Z,15.17
2019-01-06T09:34:31.927Z,15.47
2019-01-06T09:37:31.988Z,15.77
2019-01-06T09:40:27.356Z,15.33
2019-01-06T09:43:14.071Z,16.53
2019-01-06T09:46:04.120Z,16.77
2019-01-06T09:48:52.008Z,17.03
2019-01-06T09:51:52.040Z,17.27
2019-01-06T09:54:38.953Z,14.50
2019-01-06T09:57:32.957Z,14.90
2019-01-06T10:00:25.519Z,14.60
2019-01-06T10:03:09.926Z,12.10
2019-01-06T10:06:10.281Z,11.77
2019-01-06T10:08:56.942Z,11.50
2019-01-06T10:11:38.969Z,12.33
2019-01-06T10:14:25.514Z,11.40
2019-01-06T10:17:28.659Z,9.70
2019-01-06T10:20:15.195Z,7.80
2019-01-06T10:23:12.240Z,6.10
2019-01-06T10:26:02.822Z,6.13
2019-01-06T10:28:53.723Z,5.33
2019-01-06T10:31:42.418Z,4.80
2019-01-06T10:34:33.463Z,5.37
2019-01-06T10:37:19.896Z,4.80
2019-01-06T10:40:16.080Z,5.03
2019-01-06T10:43:19.618Z,5.43
2019-01-06T10:46:26.226Z,5.37
2019-01-06T10:49:30.483Z,4.90
2019-01-06T10:52:26.887Z,4.53
2019-01-06T10:55:28.408Z,5.37
2019-01-06T10:58:21.995Z,4.63
2019-01-06T11:01:08.334Z,5.30
2019-01-06T11:03:55.221Z,4.57
2019-01-06T11:06:48.969Z,4.13
2019-01-06T11:09:34.301Z,4.97
2019-01-06T11:12:21.017Z,4.90
2019-01-06T11:15:11.563Z,5.23
2019-01-06T11:17:57.951Z,5.53
2019-01-06T11:20:44.516Z,5.57
2019-01-06T11:23:30.941Z,5.70
2019-01-06T11:26:22.804Z,6.07
2019-01-06T11:29:09.549Z,5.57
2019-01-06T11:32:03.571Z,6.40
2019-01-06T11:34:50.155Z,6.57
2019-01-06T11:37:36.693Z,6.73
2019-01-06T11:40:23.262Z,6.97
2019-01-06T11:46:13.516Z,7.13
2019-01-06T11:49:04.285Z,6.57
2019-01-06T11:51:55.341Z,7.53
2019-01-06T11:54:52.529Z,7.10
2019-01-06T11:57:52.295Z,7.33
2019-01-06T12:00:38.663Z,7.40
2019-01-06T12:03:29.786Z,8.23
2019-01-06T12:06:17.326Z,7.50
2019-01-06T12:09:08.425Z,7.43
2019-01-06T12:11:57.497Z,8.03
2019-01-06T12:14:45.438Z,7.70
2019-01-06T12:17:37.608Z,8.23
2019-01-06T12:20:37.818Z,8.93
2019-01-06T12:23:33.576Z,8.73
2019-01-06T12:26:20.250Z,9.40
2019-01-06T12:29:11.298Z,9.47
2019-01-06T12:31:55.559Z,10.17
2019-01-06T12:34:42.170Z,12.07
2019-01-06T12:37:28.495Z,9.83
2019-01-06T12:40:16.329Z,9.90
2019-01-06T12:43:09.486Z,10.03
2019-01-06T12:45:57.475Z,10.10
2019-01-06T12:48:43.885Z,10.90
2019-01-06T12:51:27.784Z,9.97
2019-01-06T12:54:22.939Z,10.00
2019-01-06T12:57:07.714Z,9.80
2019-01-06T12:59:55.675Z,10.67
2019-01-06T13:02:41.526Z,9.57
2019-01-06T13:05:28.325Z,9.87
2019-01-06T13:08:14.699Z,10.43
2019-01-06T13:11:01.141Z,8.77
2019-01-06T13:14:02.393Z,9.47
2019-01-06T13:16:43.915Z,9.10
2019-01-06T13:19:32.181Z,9.97
2019-01-06T13:22:18.497Z,11.10
2019-01-06T13:25:15.641Z,10.47
2019-01-06T13:28:15.057Z,8.97
2019-01-06T13:31:01.674Z,10.27
2019-01-06T13:33:58.696Z,9.07
2019-01-06T13:36:52.474Z,8.67
2019-01-06T13:39:52.642Z,9.27
2019-01-06T13:42:47.456Z,10.10
2019-01-06T13:45:47.693Z,8.50
2019-01-06T13:48:32.051Z,9.33
2019-01-06T13:51:26.164Z,6.83
2019-01-06T13:54:32.637Z,7.20
2019-01-06T13:57:19.378Z,7.43
2019-01-06T14:00:06.118Z,7.53
2019-01-06T14:02:52.724Z,7.30
2019-01-06T14:05:54.149Z,7.60
2019-01-06T14:08:43.953Z,7.50
2019-01-06T14:11:33.896Z,7.30
2019-01-06T14:14:21.997Z,8.13
2019-01-06T14:17:21.092Z,9.67
2019-01-06T14:20:06.806Z,9.77
2019-01-06T14:23:05.613Z,9.10
2019-01-06T14:25:53.234Z,9.40
2019-01-06T14:28:44.266Z,9.93
2019-01-06T14:31:32.182Z,10.20
2019-01-06T14:34:19.096Z,10.43
2019-01-06T14:37:07.051Z,11.60
2019-01-06T14:39:58.348Z,11.77
2019-01-06T14:42:55.584Z,13.27
2019-01-06T14:45:42.895Z,12.23
2019-01-06T14:48:36.981Z,13.57
2019-01-06T14:51:24.135Z,13.50
2019-01-06T14:54:26.939Z,12.40
2019-01-06T14:57:27.378Z,13.20
2019-01-06T15:00:14.121Z,13.40
2019-01-06T15:03:00.587Z,15.33
2019-01-06T15:05:49.675Z,13.10
2019-01-06T15:08:34.632Z,12.57
2019-01-06T15:11:28.664Z,13.07
2019-01-06T15:14:15.335Z,12.67
2019-01-06T15:17:01.521Z,12.13
2019-01-06T15:19:49.393Z,10.87
2019-01-06T15:22:36.239Z,11.27
2019-01-06T15:25:23.205Z,11.50
2019-01-06T15:28:11.491Z,11.07
2019-01-06T15:30:59.640Z,10.07
2019-01-06T15:34:00.139Z,11.17
2019-01-06T15:36:57.744Z,10.80
2019-01-06T15:39:44.551Z,10.57
2019-01-06T15:42:33.186Z,11.53
2019-01-06T15:45:21.728Z,11.63
2019-01-06T15:48:08.671Z,12.43
2019-01-06T15:51:07.805Z,12.20
2019-01-06T15:53:59.973Z,10.57
2019-01-06T15:56:43.270Z,10.33
2019-01-06T15:59:31.849Z,10.23
2019-01-06T16:02:19.263Z,10.23
2019-01-06T16:05:07.961Z,10.20
2019-01-06T16:07:58.624Z,10.40
2019-01-06T16:13:54.979Z,9.73
2019-01-06T16:16:49.369Z,10.07
2019-01-06T16:19:43.877Z,11.97
2019-01-06T16:22:32.493Z,12.23
2019-01-06T16:25:22.124Z,10.97
2019-01-06T16:28:16.599Z,9.10
2019-01-06T16:31:08.499Z,12.07
2019-01-06T16:34:00.698Z,10.17
2019-01-06T16:36:47.666Z,9.73
2019-01-06T16:39:35.576Z,9.33
2019-01-06T16:42:23.651Z,9.47
2019-01-06T16:45:10.738Z,8.77
2019-01-06T16:48:09.949Z,8.43
2019-01-06T16:50:50.361Z,9.03
2019-01-06T16:53:41.134Z,7.70
2019-01-06T16:56:27.611Z,6.53
2019-01-06T16:59:16.735Z,6.63
2019-01-06T17:02:25.256Z,6.23
2019-01-06T17:05:06.884Z,8.80
2019-01-06T17:07:53.453Z,6.03
2019-01-06T17:10:52.422Z,6.00
2019-01-06T17:13:54.877Z,6.77
2019-01-06T17:16:46.463Z,5.77
2019-01-06T17:19:52.775Z,4.70
2019-01-06T17:22:49.738Z,4.50
2019-01-06T17:25:36.215Z,4.87
2019-01-06T17:28:22.605Z,5.00
2019-01-06T17:31:16.720Z,6.20
2019-01-06T17:34:04.794Z,5.67
2019-01-06T17:37:00.089Z,6.00
2019-01-06T17:39:38.537Z,7.13
2019-01-06T17:42:22.489Z,6.60
2019-01-06T17:45:09.002Z,8.20
2019-01-06T17:48:15.347Z,8.23
2019-01-06T17:51:03.679Z,7.77
2019-01-06T17:53:55.258Z,7.30
2019-01-06T17:56:46.880Z,6.67
2019-01-06T17:59:44.318Z,7.80
2019-01-06T18:02:43.218Z,8.53
2019-01-06T18:05:34.857Z,8.97
2019-01-06T18:08:35.330Z,8.13
2019-01-06T18:11:19.032Z,9.10
2019-01-06T18:14:08.106Z,8.77
2019-01-06T18:16:54.995Z,10.47
2019-01-06T18:19:53.154Z,10.00
2019-01-06T18:22:56.316Z,8.37
2019-01-06T18:25:44.145Z,7.93
2019-01-06T18:28:38.224Z,9.00
2019-01-06T18:31:40.295Z,7.63
2019-01-06T18:34:20.010Z,8.80
2019-01-06T18:37:08.033Z,9.30
2019-01-06T18:39:56.028Z,8.77
2019-01-06T18:42:50.352Z,7.90
2019-01-06T18:45:36.995Z,7.30
2019-01-06T18:48:31.352Z,8.33
2019-01-06T18:51:18.214Z,7.00
2019-01-06T18:54:08.318Z,7.87
2019-01-06T18:56:55.186Z,6.53
2019-01-06T18:59:41.806Z,6.93
2019-01-06T19:02:42.079Z,6.20
2019-01-06T19:05:30.215Z,7.23
2019-01-06T19:08:25.659Z,9.20
2019-01-06T19:11:11.069Z,8.87
2019-01-06T19:14:02.111Z,8.23
2019-01-06T19:16:43.003Z,7.37
2019-01-06T19:19:46.341Z,7.40
2019-01-06T19:22:43.480Z,7.43
2019-01-06T19:25:29.899Z,8.30
2019-01-06T19:28:32.936Z,7.33
2019-01-06T19:31:21.881Z,8.80
2019-01-06T19:37:04.648Z,9.20
2019-01-06T19:39:51.427Z,11.50
2019-01-06T19:42:47.815Z,12.73
2019-01-06T19:45:39.352Z,10.60
2019-01-06T19:48:36.122Z,10.80
2019-01-06T19:51:30.669Z,10.40
2019-01-06T19:54:28.456Z,8.97
2019-01-06T19:57:15.396Z,9.57
2019-01-06T20:00:03.565Z,10.10
2019-01-06T20:02:52.553Z,9.00
2019-01-06T20:05:49.814Z,9.43
2019-01-06T20:08:48.492Z,9.70
2019-01-06T20:11:37.412Z,9.53
2019-01-06T20:14:23.146Z,9.97
2019-01-06T20:17:14.603Z,9.13
2019-01-06T20:19:59.192Z,10.47
2019-01-06T20:22:53.463Z,10.23
2019-01-06T20:25:40.342Z,9.90
2019-01-06T20:28:27.073Z,9.80
2019-01-06T20:31:15.447Z,9.97
2019-01-06T20:34:02.420Z,9.70
2019-01-06T20:37:05.294Z,9.80
2019-01-06T20:39:51.604Z,9.57
2019-01-06T20:42:38.136Z,9.03
2019-01-06T20:45:26.319Z,8.93
2019-01-06T20:48:13.472Z,9.83
2019-01-06T20:51:02.619Z,9.00
2019-01-06T20:53:49.017Z,8.37
2019-01-06T20:56:37.138Z,8.67
2019-01-06T20:59:32.782Z,9.07
2019-01-06T21:02:20.485Z,7.93
2019-01-06T21:05:08.061Z,8.50
2019-01-06T21:07:56.513Z,8.73
2019-01-06T21:10:52.482Z,8.47
2019-01-06T21:13:39.097Z,8.17
2019-01-06T21:16:37.325Z,9.55
2019-01-06T21:19:34.173Z,8.30
2019-01-06T21:22:22.333Z,8.33
2019-01-06T21:25:14.414Z,6.77
2019-01-06T21:27:54.804Z,7.27
2019-01-06T21:30:44.205Z,7.20
2019-01-06T21:33:35.445Z,7.17
2019-01-06T21:36:32.195Z,7.43
2019-01-06T21:39:15.887Z,7.03
2019-01-06T21:42:16.105Z,7.33
2019-01-06T21:45:02.785Z,7.20
2019-01-06T21:47:51.657Z,7.03
2019-01-06T21:50:39.614Z,7.60
2019-01-06T21:53:33.035Z,7.20
2019-01-06T21:56:14.368Z,7.60
2019-01-06T21:59:00.950Z,7.47
2019-01-06T22:01:49.977Z,6.97
2019-01-06T22:04:55.926Z,7.80
2019-01-06T22:07:51.390Z,7.73
2019-01-06T22:10:36.496Z,6.23
2019-01-06T22:13:23.297Z,6.80
2019-01-06T22:16:17.185Z,5.80
2019-01-06T22:19:03.149Z,6.37
2019-01-06T22:21:51.122Z,6.70
2019-01-06T22:24:37.663Z,6.67
2019-01-06T22:27:26.068Z,5.63
2019-01-06T22:30:18.226Z,5.03
2019-01-06T22:33:08.827Z,6.17
2019-01-06T22:35:51.689Z,6.80
2019-01-06T22:38:34.658Z,5.37
2019-01-06T22:41:19.216Z,6.87
2019-01-06T22:44:05.286Z,5.83
2019-01-06T22:46:53.418Z,6.87
2019-01-06T22:49:42.656Z,5.70
2019-01-06T22:52:36.943Z,4.97
2019-01-06T22:55:39.275Z,5.70
2019-01-06T22:58:28.470Z,5.87
2019-01-06T23:01:32.998Z,5.93
2019-01-06T23:04:20.983Z,4.57
2019-01-06T23:07:07.386Z,6.40
2019-01-06T23:09:55.327Z,6.17
2019-01-06T23:12:43.101Z,5.20
2019-01-06T23:15:46.853Z,6.10
2019-01-06T23:18:49.311Z,6.07
2019-01-06T23:21:46.195Z,7.67
2019-01-06T23:24:43.919Z,6.53
2019-01-06T23:27:39.602Z,6.47
2019-01-06T23:30:33.137Z,7.53
2019-01-06T23:33:21.663Z,7.10
2019-01-06T23:36:12.893Z,6.43
2019-01-06T23:38:59.346Z,6.50
2019-01-06T23:41:47.287Z,7.40
2019-01-06T23:44:40.356Z,6.27
2019-01-06T23:47:30.277Z,6.50
2019-01-06T23:50:16.113Z,6.30
2019-01-06T23:53:02.990Z,6.27
2019-01-06T23:55:50.379Z,5.87
2019-01-06T23:58:37.409Z,6.20
